createdAt,value
2019-03-02T00:04:52.352Z,101375.45
2019-03-02T00:09:45.240Z,101378.95
2019-03-02T00:14:38.136Z,101379.47
2019-03-02T00:19:31.031Z,101370.97
2019-03-02T00:24:23.956Z,101361.94
2019-03-02T00:29:16.822Z,101362.74
2019-03-02T00:34:09.760Z,101358.74
2019-03-02T00:39:03.766Z,101347.25
2019-03-02T00:43:59.781Z,101347.95
2019-03-02T00:48:51.466Z,101344.73
2019-03-02T00:53:44.335Z,101338.93
2019-03-02T00:58:37.247Z,101335.06
2019-03-02T01:03:30.081Z,101339.82
2019-03-02T01:08:23.080Z,101333.13
2019-03-02T01:13:16.812Z,101332.27
2019-03-02T01:18:13.128Z,101326.73
2019-03-02T01:23:07.185Z,101321.03
2019-03-02T01:28:00.165Z,101312.75
2019-03-02T01:32:53.692Z,101307.13
2019-03-02T01:37:46.824Z,101302.64
2019-03-02T01:42:39.752Z,101300.34
2019-03-02T01:47:32.736Z,101292.56
2019-03-02T01:52:25.657Z,101291.03
2019-03-02T01:57:18.557Z,101288.44
2019-03-02T02:02:11.638Z,101282.42
2019-03-02T02:07:04.919Z,101275.70
2019-03-02T02:11:58.423Z,101268.88
2019-03-02T02:16:51.382Z,101275.31
2019-03-02T02:21:44.383Z,101265.56
2019-03-02T02:26:37.298Z,101260.75
2019-03-02T02:31:30.211Z,101261.48
2019-03-02T02:36:25.454Z,101256.52
2019-03-02T02:41:22.972Z,101246.56
2019-03-02T02:46:13.123Z,101245.55
2019-03-02T02:51:10.220Z,101237.20
2019-03-02T02:56:01.990Z,101236.20
2019-03-02T03:00:55.652Z,101241.72
2019-03-02T03:05:54.190Z,101237.80
2019-03-02T03:10:44.491Z,101230.02
2019-03-02T03:15:43.710Z,101228.84
2019-03-02T03:20:37.005Z,101222.48
2019-03-02T03:25:29.950Z,101220.86
2019-03-02T03:30:32.919Z,101213.87
2019-03-02T03:35:19.983Z,101214.80
2019-03-02T03:40:12.925Z,101212.19
2019-03-02T03:45:08.310Z,101207.52
2019-03-02T03:50:01.350Z,101207.53
2019-03-02T03:54:54.242Z,101201.48
2019-03-02T03:59:47.242Z,101202.55
2019-03-02T04:04:40.146Z,101199.35
2019-03-02T04:09:42.865Z,101196.42
2019-03-02T04:14:38.202Z,101194.22
2019-03-02T04:19:34.069Z,101194.61
2019-03-02T04:24:28.052Z,101188.44
2019-03-02T04:29:21.935Z,101188.78
2019-03-02T04:34:20.683Z,101182.33
2019-03-02T04:39:13.613Z,101180.62
2019-03-02T04:44:04.752Z,101173.86
2019-03-02T04:48:57.675Z,101172.72
2019-03-02T04:53:50.593Z,101177.59
2019-03-02T04:58:43.721Z,101164.50
2019-03-02T05:03:38.295Z,101171.52
2019-03-02T05:08:31.187Z,101162.05
2019-03-02T05:13:24.803Z,101159.70
2019-03-02T05:18:18.991Z,101155.19
2019-03-02T05:23:12.087Z,101149.47
2019-03-02T05:28:07.238Z,101143.89
2019-03-02T05:32:59.811Z,101138.69
2019-03-02T05:37:52.744Z,101133.06
2019-03-02T05:42:50.800Z,101134.69
2019-03-02T05:47:41.288Z,101134.82
2019-03-02T05:52:34.257Z,101134.23
2019-03-02T05:57:28.703Z,101131.95
2019-03-02T06:02:21.634Z,101125.19
2019-03-02T06:07:14.883Z,101122.17
2019-03-02T06:12:07.840Z,101129.77
2019-03-02T06:17:00.700Z,101127.58
2019-03-02T06:21:53.602Z,101129.75
2019-03-02T06:26:48.491Z,101133.59
2019-03-02T06:31:41.474Z,101127.57
2019-03-02T06:36:34.365Z,101120.09
2019-03-02T06:41:29.755Z,101115.22
2019-03-02T06:46:23.468Z,101110.08
2019-03-02T06:51:18.429Z,101101.59
2019-03-02T06:56:11.632Z,101091.70
2019-03-02T07:01:05.658Z,101092.94
2019-03-02T07:05:58.587Z,101094.22
2019-03-02T07:10:54.505Z,101093.14
2019-03-02T07:15:47.452Z,101101.45
2019-03-02T07:20:40.977Z,101092.34
2019-03-02T07:25:37.094Z,101094.20
2019-03-02T07:30:28.613Z,101098.16
2019-03-02T07:35:21.585Z,101091.50
2019-03-02T07:40:14.873Z,101102.42
2019-03-02T07:45:10.958Z,101096.23
2019-03-02T07:50:04.677Z,101095.72
2019-03-02T07:54:58.577Z,101106.08
2019-03-02T07:59:51.777Z,101106.36
2019-03-02T08:04:47.587Z,101109.20
2019-03-02T08:09:41.906Z,101106.01
2019-03-02T08:14:35.132Z,101113.69
2019-03-02T08:19:28.119Z,101112.08
2019-03-02T08:24:21.149Z,101112.02
2019-03-02T08:29:14.176Z,101118.59
2019-03-02T08:34:09.762Z,101102.98
2019-03-02T08:39:02.207Z,101101.22
2019-03-02T08:43:55.526Z,101081.41
2019-03-02T08:48:49.777Z,101093.19
2019-03-02T08:53:44.453Z,101096.12
2019-03-02T08:58:37.368Z,101089.76
2019-03-02T09:03:30.397Z,101091.88
2019-03-02T09:08:23.343Z,101087.47
2019-03-02T09:13:16.275Z,101083.75
2019-03-02T09:18:09.258Z,101083.39
2019-03-02T09:23:02.204Z,101074.09
2019-03-02T09:27:55.143Z,101074.61
2019-03-02T09:32:51.057Z,101074.03
2019-03-02T09:37:44.820Z,101067.25
2019-03-02T09:42:40.213Z,101073.52
2019-03-02T09:47:32.653Z,101068.38
2019-03-02T09:52:25.567Z,101062.08
2019-03-02T09:57:18.513Z,101059.81
2019-03-02T10:02:14.474Z,101054.48
2019-03-02T10:07:06.632Z,101054.41
2019-03-02T10:11:59.677Z,101047.20
2019-03-02T10:16:52.688Z,101045.39
2019-03-02T10:21:47.467Z,101048.03
2019-03-02T10:26:43.323Z,101047.05
2019-03-02T10:31:35.634Z,101047.92
2019-03-02T10:36:31.034Z,101042.30
2019-03-02T10:41:23.539Z,101044.86
2019-03-02T10:46:16.478Z,101045.02
2019-03-02T10:51:09.456Z,101034.05
2019-03-02T10:56:02.500Z,101018.77
2019-03-02T11:00:56.555Z,101011.84
2019-03-02T11:05:56.907Z,101003.83
2019-03-02T11:11:10.553Z,101004.38
2019-03-02T11:16:41.092Z,100997.51
2019-03-02T11:22:14.976Z,100992.36
2019-03-02T11:27:28.487Z,100979.09
2019-03-02T11:32:31.656Z,100974.25
2019-03-02T11:37:32.316Z,100960.07
2019-03-02T11:42:44.901Z,100949.69
2019-03-02T11:48:13.670Z,100935.41
2019-03-02T11:53:32.934Z,100929.84
2019-03-02T11:58:44.029Z,100926.56
2019-03-02T12:03:48.719Z,100926.74
2019-03-02T12:09:01.266Z,100911.20
2019-03-02T12:14:34.565Z,100906.11
2019-03-02T12:19:45.082Z,100899.08
2019-03-02T12:24:58.498Z,100889.04
2019-03-02T12:30:03.451Z,100878.53
2019-03-02T12:35:19.011Z,100870.16
2019-03-02T12:40:40.126Z,100864.47
2019-03-02T12:45:45.984Z,100855.83
2019-03-02T12:50:45.215Z,100857.45
2019-03-02T12:56:00.899Z,100848.31
2019-03-02T13:01:04.063Z,100848.95
2019-03-02T13:06:32.246Z,100828.41
2019-03-02T13:11:44.021Z,100823.08
2019-03-02T13:16:55.851Z,100805.66
2019-03-02T13:22:19.265Z,100806.48
2019-03-02T13:27:21.587Z,100799.75
2019-03-02T13:32:32.841Z,100804.84
2019-03-02T13:37:53.010Z,100802.56
2019-03-02T13:43:06.178Z,100803.70
2019-03-02T13:48:25.730Z,100808.49
2019-03-02T13:53:26.307Z,100802.55
2019-03-02T13:58:42.401Z,100800.66
2019-03-02T14:03:57.515Z,100800.96
2019-03-02T14:09:22.552Z,100805.48
2019-03-02T14:14:34.356Z,100798.77
2019-03-02T14:19:48.444Z,100783.06
2019-03-02T14:24:55.149Z,100771.36
2019-03-02T14:29:53.531Z,100770.13
2019-03-02T14:34:55.487Z,100766.08
2019-03-02T14:40:14.625Z,100762.67
2019-03-02T14:45:21.828Z,100757.75
2019-03-02T14:50:47.459Z,100746.02
2019-03-02T14:56:06.342Z,100750.27
2019-03-02T15:01:20.717Z,100753.41
2019-03-02T15:06:40.489Z,100765.20
2019-03-02T15:11:52.280Z,100762.23
2019-03-02T15:16:54.540Z,100769.50
2019-03-02T15:22:03.777Z,100764.91
2019-03-02T15:27:12.947Z,100760.71
2019-03-02T15:32:40.855Z,100756.09
2019-03-02T15:38:04.133Z,100750.24
2019-03-02T15:43:02.475Z,100745.17
2019-03-02T15:48:28.555Z,100751.42
2019-03-02T15:53:35.440Z,100742.66
2019-03-02T15:58:55.654Z,100746.17
2019-03-02T16:04:13.000Z,100745.61
2019-03-02T16:09:25.148Z,100748.56
2019-03-02T16:14:37.772Z,100748.14
2019-03-02T16:19:53.170Z,100743.30
2019-03-02T16:25:08.623Z,100747.17
2019-03-02T16:30:21.523Z,100749.03
2019-03-02T16:35:40.228Z,100754.09
2019-03-02T16:40:59.661Z,100757.77
2019-03-02T16:46:18.837Z,100772.09
2019-03-02T16:51:29.664Z,100750.97
2019-03-02T16:56:57.671Z,100782.77
2019-03-02T17:02:08.492Z,100795.56
2019-03-02T17:07:35.782Z,100799.51
2019-03-02T17:13:12.238Z,100798.52
2019-03-02T17:18:30.816Z,100792.95
2019-03-02T17:23:42.389Z,100789.69
2019-03-02T17:28:44.720Z,100787.62
2019-03-02T17:33:55.813Z,100786.66
2019-03-02T17:39:11.289Z,100782.61
2019-03-02T17:44:18.703Z,100785.24
2019-03-02T17:49:34.304Z,100785.02
2019-03-02T17:55:05.867Z,100784.31
2019-03-02T18:00:27.878Z,100792.92
2019-03-02T18:05:40.119Z,100781.83
2019-03-02T18:10:42.785Z,100785.71
2019-03-02T18:15:52.892Z,100795.86
2019-03-02T18:20:45.986Z,100789.95
2019-03-02T18:25:39.499Z,100790.42
2019-03-02T18:30:33.598Z,100795.84
2019-03-02T18:35:26.624Z,100791.50
2019-03-02T18:40:19.695Z,100793.19
2019-03-02T18:45:13.559Z,100799.84
2019-03-02T18:50:38.508Z,100801.37
2019-03-02T18:55:32.593Z,100808.06
2019-03-02T19:00:28.455Z,100807.06
2019-03-02T19:05:28.339Z,100811.42
2019-03-02T19:10:21.943Z,100803.92
2019-03-02T19:15:16.942Z,100786.63
2019-03-02T19:20:10.195Z,100809.09
2019-03-02T19:25:04.417Z,100808.16
2019-03-02T19:29:57.969Z,100818.15
2019-03-02T19:34:51.091Z,100829.77
2019-03-02T19:39:46.815Z,100826.82
2019-03-02T19:44:40.047Z,100825.16
2019-03-02T19:49:33.493Z,100825.69
2019-03-02T19:54:26.851Z,100817.99
2019-03-02T19:59:20.298Z,100826.11
2019-03-02T20:04:13.661Z,100820.18
2019-03-02T20:09:07.339Z,100820.15
2019-03-02T20:14:00.637Z,100807.38
2019-03-02T20:18:54.039Z,100813.83
2019-03-02T20:23:47.632Z,100813.11
2019-03-02T20:28:42.553Z,100811.03
2019-03-02T20:33:37.100Z,100814.78
2019-03-02T20:38:30.406Z,100810.31
2019-03-02T20:43:23.904Z,100812.28
2019-03-02T20:48:17.229Z,100817.73
2019-03-02T20:53:10.521Z,100818.65
2019-03-02T20:58:04.977Z,100819.01
2019-03-02T21:02:57.877Z,100812.19
2019-03-02T21:07:50.772Z,100812.23
2019-03-02T21:12:43.749Z,100811.62
2019-03-02T21:17:36.742Z,100815.67
2019-03-02T21:22:29.653Z,100812.02
2019-03-02T21:27:22.543Z,100816.66
2019-03-02T21:32:15.433Z,100815.33
2019-03-02T21:37:08.323Z,100813.52
2019-03-02T21:42:01.415Z,100814.95
2019-03-02T21:46:54.318Z,100816.23
2019-03-02T21:51:47.711Z,100807.70
2019-03-02T21:56:40.680Z,100796.52
2019-03-02T22:01:33.649Z,100795.64
2019-03-02T22:06:26.544Z,100789.96
2019-03-02T22:11:19.523Z,100778.36
2019-03-02T22:16:12.433Z,100778.53
2019-03-02T22:22:37.034Z,100783.22
2019-03-02T22:27:27.001Z,100789.47
2019-03-02T22:32:22.063Z,100789.84
2019-03-02T22:37:15.889Z,100786.90
2019-03-02T22:42:10.522Z,100786.07
2019-03-02T22:47:03.980Z,100785.20
2019-03-02T22:51:59.509Z,100782.79
2019-03-02T22:56:52.563Z,100786.53
2019-03-02T23:02:19.745Z,100783.53
2019-03-02T23:07:14.778Z,100777.17
2019-03-02T23:12:09.801Z,100777.91
2019-03-02T23:17:03.974Z,100778.56
2019-03-02T23:21:58.130Z,100762.81
2019-03-02T23:26:52.464Z,100758.90
2019-03-02T23:31:52.989Z,100750.49
2019-03-02T23:36:46.488Z,100749.10
2019-03-02T23:41:40.518Z,100748.19
2019-03-02T23:46:34.115Z,100743.17
2019-03-02T23:51:29.033Z,100733.58
2019-03-02T23:56:22.804Z,100748.95
